createdAt,value
2018-08-30T00:00:42.873Z,16.96
2018-08-30T00:03:11.985Z,16.97
2018-08-30T00:05:41.252Z,16.95
2018-08-30T00:08:10.352Z,16.94
2018-08-30T00:10:39.199Z,16.95
2018-08-30T00:13:08.112Z,16.98
2018-08-30T00:15:36.976Z,17.00
2018-08-30T00:18:05.852Z,16.93
2018-08-30T00:20:34.760Z,16.90
2018-08-30T00:23:03.662Z,16.87
2018-08-30T00:25:32.556Z,16.89
2018-08-30T00:28:01.434Z,16.87
2018-08-30T00:30:30.305Z,16.85
2018-08-30T00:32:59.140Z,17.05
2018-08-30T00:35:28.014Z,16.93
2018-08-30T00:37:56.870Z,16.92
2018-08-30T00:40:25.722Z,16.90
2018-08-30T00:42:54.564Z,16.87
2018-08-30T00:45:23.445Z,16.79
2018-08-30T00:47:52.288Z,16.77
2018-08-30T00:50:21.234Z,16.70
2018-08-30T00:52:50.070Z,16.71
2018-08-30T00:55:18.920Z,17.05
2018-08-30T00:57:47.812Z,16.85
2018-08-30T01:00:16.739Z,16.84
2018-08-30T01:02:45.603Z,17.16
2018-08-30T01:05:14.548Z,16.95
2018-08-30T01:07:43.418Z,16.88
2018-08-30T01:10:12.276Z,16.82
2018-08-30T01:12:53.250Z,16.75
2018-08-30T01:15:23.626Z,16.70
2018-08-30T01:17:52.569Z,16.67
2018-08-30T01:20:21.950Z,16.65
2018-08-30T01:22:50.835Z,16.62
2018-08-30T01:25:19.809Z,16.98
2018-08-30T01:27:48.946Z,16.74
2018-08-30T01:30:18.807Z,16.67
2018-08-30T01:32:47.700Z,16.60
2018-08-30T01:35:16.560Z,16.94
2018-08-30T01:37:45.434Z,16.66
2018-08-30T01:40:14.326Z,16.58
2018-08-30T01:42:43.203Z,16.57
2018-08-30T01:45:12.097Z,16.55
2018-08-30T01:47:40.971Z,16.91
2018-08-30T01:50:09.907Z,16.71
2018-08-30T01:52:38.762Z,16.70
2018-08-30T01:55:07.657Z,16.63
2018-08-30T01:57:36.529Z,16.94
2018-08-30T02:00:05.440Z,16.66
2018-08-30T02:02:34.307Z,16.58
2018-08-30T02:05:03.215Z,16.52
2018-08-30T02:07:32.093Z,16.49
2018-08-30T02:10:01.084Z,16.82
2018-08-30T02:12:29.997Z,16.62
2018-08-30T02:14:58.801Z,16.56
2018-08-30T02:17:27.671Z,16.54
2018-08-30T02:19:56.541Z,16.54
2018-08-30T02:22:25.385Z,16.51
2018-08-30T02:24:54.251Z,16.49
2018-08-30T02:27:23.164Z,16.45
2018-08-30T02:29:52.035Z,16.45
2018-08-30T02:32:20.946Z,16.47
2018-08-30T02:34:49.828Z,16.44
2018-08-30T02:37:18.704Z,16.43
2018-08-30T02:39:47.578Z,16.43
2018-08-30T02:42:16.451Z,16.41
2018-08-30T02:44:45.311Z,16.40
2018-08-30T02:47:14.185Z,16.34
2018-08-30T02:49:43.063Z,16.32
2018-08-30T02:52:11.938Z,16.26
2018-08-30T02:54:40.818Z,16.18
2018-08-30T02:57:09.660Z,16.49
2018-08-30T02:59:38.521Z,16.24
2018-08-30T03:02:07.409Z,16.18
2018-08-30T03:04:36.271Z,16.10
2018-08-30T03:07:05.125Z,16.40
2018-08-30T03:09:34.025Z,16.10
2018-08-30T03:12:02.898Z,16.02
2018-08-30T03:14:31.756Z,15.99
2018-08-30T03:17:00.632Z,15.91
2018-08-30T03:19:29.497Z,15.88
2018-08-30T03:21:58.357Z,15.84
2018-08-30T03:24:27.224Z,15.78
2018-08-30T03:26:56.149Z,15.70
2018-08-30T03:29:25.024Z,15.68
2018-08-30T03:31:53.922Z,15.68
2018-08-30T03:34:22.768Z,15.69
2018-08-30T03:36:51.641Z,15.68
2018-08-30T03:39:20.484Z,15.71
2018-08-30T03:41:49.357Z,15.75
2018-08-30T03:44:18.223Z,15.78
2018-08-30T03:46:47.099Z,15.81
2018-08-30T03:49:15.928Z,15.80
2018-08-30T03:51:44.818Z,15.75
2018-08-30T03:54:13.685Z,16.11
2018-08-30T03:56:42.570Z,15.88
2018-08-30T03:59:11.482Z,15.87
2018-08-30T04:01:40.362Z,15.84
2018-08-30T04:04:09.229Z,16.10
2018-08-30T04:06:38.070Z,15.84
2018-08-30T04:09:08.032Z,15.81
2018-08-30T04:11:36.962Z,15.71
2018-08-30T04:14:05.897Z,15.65
2018-08-30T04:16:34.768Z,15.68
2018-08-30T04:19:07.723Z,15.69
2018-08-30T04:21:37.298Z,15.65
2018-08-30T04:24:07.569Z,15.94
2018-08-30T04:26:36.423Z,15.68
2018-08-30T04:29:05.390Z,15.62
2018-08-30T04:31:34.425Z,15.59
2018-08-30T04:34:03.163Z,15.50
2018-08-30T04:36:32.044Z,15.49
2018-08-30T04:39:00.915Z,15.43
2018-08-30T04:41:29.785Z,15.41
2018-08-30T04:43:58.664Z,15.44
2018-08-30T04:46:27.527Z,15.44
2018-08-30T04:48:56.413Z,15.46
2018-08-30T04:51:25.278Z,15.45
2018-08-30T04:53:54.163Z,15.40
2018-08-30T04:56:23.025Z,15.45
2018-08-30T04:58:51.863Z,15.44
2018-08-30T05:01:20.749Z,15.50
2018-08-30T05:03:49.618Z,15.50
2018-08-30T05:06:18.480Z,15.51
2018-08-30T05:08:47.366Z,15.51
2018-08-30T05:11:16.238Z,15.50
2018-08-30T05:13:45.127Z,15.53
2018-08-30T05:16:14.000Z,15.54
2018-08-30T05:18:42.865Z,15.54
2018-08-30T05:21:11.757Z,15.50
2018-08-30T05:23:40.631Z,15.52
2018-08-30T05:26:09.547Z,15.49
2018-08-30T05:28:38.437Z,15.51
2018-08-30T05:31:07.316Z,15.81
2018-08-30T05:36:14.053Z,15.61
2018-08-30T05:38:42.916Z,15.66
2018-08-30T05:41:11.750Z,15.68
2018-08-30T05:43:40.584Z,15.69
2018-08-30T05:46:09.503Z,15.72
2018-08-30T05:48:38.380Z,16.01
2018-08-30T05:51:07.842Z,15.81
2018-08-30T05:53:36.713Z,15.83
2018-08-30T05:56:05.578Z,15.86
2018-08-30T05:58:34.456Z,15.88
2018-08-30T06:01:03.350Z,15.91
2018-08-30T06:03:32.165Z,16.19
2018-08-30T06:06:01.029Z,16.03
2018-08-30T06:08:29.975Z,16.09
2018-08-30T06:10:58.737Z,16.11
2018-08-30T06:13:27.583Z,16.14
2018-08-30T06:15:56.414Z,16.16
2018-08-30T06:18:25.271Z,16.44
2018-08-30T06:20:54.130Z,16.51
2018-08-30T06:23:22.960Z,16.74
2018-08-30T06:25:51.949Z,16.84
2018-08-30T06:28:20.748Z,16.81
2018-08-30T06:30:49.619Z,16.87
2018-08-30T06:33:18.575Z,16.77
2018-08-30T06:35:47.440Z,16.72
2018-08-30T06:38:16.293Z,16.66
2018-08-30T06:40:45.132Z,16.68
2018-08-30T06:43:13.970Z,16.76
2018-08-30T06:45:42.859Z,16.85
2018-08-30T06:48:11.716Z,16.99
2018-08-30T06:50:40.545Z,17.25
2018-08-30T06:53:09.392Z,17.22
2018-08-30T06:55:38.273Z,17.90
2018-08-30T06:58:07.114Z,18.21
2018-08-30T07:00:36.118Z,18.11
2018-08-30T07:03:05.965Z,18.04
2018-08-30T07:05:34.834Z,17.95
2018-08-30T07:08:03.711Z,17.97
2018-08-30T07:10:32.578Z,18.06
2018-08-30T07:13:01.783Z,18.25
2018-08-30T07:15:30.631Z,18.50
2018-08-30T07:17:59.465Z,18.62
2018-08-30T07:20:28.341Z,18.71
2018-08-30T07:22:57.161Z,18.89
2018-08-30T07:25:26.024Z,19.04
2018-08-30T07:27:54.935Z,19.13
2018-08-30T07:30:23.771Z,19.30
2018-08-30T07:32:52.653Z,19.43
2018-08-30T07:35:21.513Z,19.62
2018-08-30T07:37:50.369Z,19.79
2018-08-30T07:40:19.295Z,20.10
2018-08-30T07:42:48.155Z,20.78
2018-08-30T07:45:16.968Z,21.32
2018-08-30T07:47:45.837Z,21.63
2018-08-30T07:50:14.701Z,21.55
2018-08-30T07:52:43.523Z,21.74
2018-08-30T07:55:12.400Z,21.56
2018-08-30T07:57:41.285Z,21.39
2018-08-30T08:00:10.155Z,21.72
2018-08-30T08:02:39.026Z,22.22
2018-08-30T08:05:07.876Z,24.08
2018-08-30T08:07:36.794Z,25.85
2018-08-30T08:10:05.763Z,26.81
2018-08-30T08:12:34.664Z,27.22
2018-08-30T08:15:03.433Z,27.69
2018-08-30T08:17:32.312Z,28.58
2018-08-30T08:20:01.126Z,28.93
2018-08-30T08:22:29.993Z,28.80
2018-08-30T08:24:58.833Z,28.54
2018-08-30T08:27:27.776Z,28.62
2018-08-30T08:29:56.621Z,29.25
2018-08-30T08:32:25.462Z,29.70
2018-08-30T08:34:54.332Z,30.30
2018-08-30T08:37:23.195Z,30.80
2018-08-30T08:39:52.008Z,31.38
2018-08-30T08:42:20.863Z,31.44
2018-08-30T08:44:49.691Z,31.12
2018-08-30T08:47:18.532Z,31.13
2018-08-30T08:49:47.394Z,30.56
2018-08-30T08:52:16.688Z,30.27
2018-08-30T08:54:45.545Z,29.60
2018-08-30T08:57:14.407Z,30.52
2018-08-30T08:59:43.240Z,30.37
2018-08-30T09:02:12.089Z,30.60
2018-08-30T09:04:40.948Z,29.24
2018-08-30T09:07:10.047Z,27.57
2018-08-30T09:09:38.773Z,26.37
2018-08-30T09:12:07.619Z,25.46
2018-08-30T09:14:36.489Z,24.20
2018-08-30T09:17:05.331Z,23.32
2018-08-30T09:19:34.157Z,22.99
2018-08-30T09:22:03.087Z,22.77
2018-08-30T09:24:31.916Z,22.60
2018-08-30T09:27:00.785Z,22.27
2018-08-30T09:29:29.594Z,22.31
2018-08-30T09:31:58.423Z,22.28
2018-08-30T09:34:27.285Z,22.22
2018-08-30T09:36:56.133Z,22.46
2018-08-30T09:39:24.970Z,22.62
2018-08-30T09:41:53.855Z,22.51
2018-08-30T09:44:22.682Z,22.32
2018-08-30T09:46:51.521Z,22.06
2018-08-30T09:49:20.416Z,22.05
2018-08-30T09:51:49.215Z,22.13
2018-08-30T09:54:18.103Z,22.09
2018-08-30T09:56:47.098Z,22.45
2018-08-30T09:59:15.863Z,22.60
2018-08-30T10:02:01.488Z,23.53
2018-08-30T10:04:31.015Z,24.96
2018-08-30T10:06:59.855Z,26.39
2018-08-30T10:09:28.687Z,27.14
2018-08-30T10:11:57.542Z,26.75
2018-08-30T10:14:27.881Z,26.75
2018-08-30T10:16:56.612Z,26.13
2018-08-30T10:19:25.486Z,25.64
2018-08-30T10:21:54.337Z,25.17
2018-08-30T10:24:23.223Z,24.43
2018-08-30T10:26:52.070Z,23.93
2018-08-30T10:29:20.981Z,23.61
2018-08-30T10:31:49.828Z,23.35
2018-08-30T10:34:18.688Z,23.54
2018-08-30T10:36:47.685Z,24.25
2018-08-30T10:39:16.540Z,24.90
2018-08-30T10:41:45.444Z,25.84
2018-08-30T10:44:14.371Z,26.48
2018-08-30T10:46:43.239Z,27.18
2018-08-30T10:49:12.075Z,27.64
2018-08-30T10:51:40.905Z,27.67
2018-08-30T10:54:09.804Z,27.74
2018-08-30T10:56:38.685Z,28.29
2018-08-30T10:59:07.619Z,28.93
2018-08-30T11:01:36.478Z,28.57
2018-08-30T11:04:05.683Z,27.94
2018-08-30T11:06:34.510Z,26.90
2018-08-30T11:09:03.491Z,26.65
2018-08-30T11:11:32.236Z,26.03
2018-08-30T11:14:01.090Z,25.21
2018-08-30T11:16:29.943Z,24.67
2018-08-30T11:18:58.868Z,24.62
2018-08-30T11:21:27.795Z,25.65
2018-08-30T11:23:56.686Z,26.55
2018-08-30T11:26:25.648Z,27.58
2018-08-30T11:28:54.574Z,28.43
2018-08-30T11:31:23.433Z,28.65
2018-08-30T11:33:52.266Z,28.67
2018-08-30T11:36:21.197Z,29.19
2018-08-30T11:38:50.090Z,28.80
2018-08-30T11:41:18.976Z,28.40
2018-08-30T11:43:48.064Z,28.01
2018-08-30T11:46:17.016Z,27.61
2018-08-30T11:48:45.848Z,27.23
2018-08-30T11:51:16.493Z,26.41
2018-08-30T11:53:45.784Z,25.68
2018-08-30T11:56:14.684Z,25.36
2018-08-30T11:58:43.522Z,25.13
2018-08-30T12:01:12.403Z,25.23
2018-08-30T12:03:41.398Z,25.36
2018-08-30T12:06:11.178Z,25.43
2018-08-30T12:08:39.999Z,25.34
2018-08-30T12:11:09.105Z,24.70
2018-08-30T12:13:37.760Z,24.53
2018-08-30T12:16:06.625Z,24.16
2018-08-30T12:18:35.475Z,23.82
2018-08-30T12:21:04.453Z,23.69
2018-08-30T12:23:33.336Z,23.63
2018-08-30T12:26:02.276Z,23.78
2018-08-30T12:28:31.175Z,23.96
2018-08-30T12:31:01.003Z,24.27
2018-08-30T12:33:29.839Z,24.38
2018-08-30T12:35:58.855Z,24.58
2018-08-30T12:38:27.602Z,24.67
2018-08-30T12:40:56.530Z,24.85
2018-08-30T12:43:25.593Z,25.13
2018-08-30T12:45:54.339Z,25.26
2018-08-30T12:48:23.187Z,25.07
2018-08-30T12:50:52.161Z,24.71
2018-08-30T12:53:21.028Z,24.39
2018-08-30T12:55:49.754Z,24.21
2018-08-30T12:58:18.701Z,24.24
2018-08-30T13:00:47.757Z,24.45
2018-08-30T13:03:16.706Z,24.62
2018-08-30T13:05:45.827Z,24.78
2018-08-30T13:08:14.564Z,24.73
2018-08-30T13:10:43.569Z,24.82
2018-08-30T13:13:12.519Z,24.92
2018-08-30T13:15:41.415Z,24.93
2018-08-30T13:18:10.400Z,24.93
2018-08-30T13:20:39.530Z,25.04
2018-08-30T13:23:08.209Z,25.15
2018-08-30T13:25:37.194Z,25.17
2018-08-30T13:28:05.989Z,25.25
2018-08-30T13:30:35.051Z,25.38
2018-08-30T13:33:03.936Z,25.08
2018-08-30T13:35:32.500Z,25.07
2018-08-30T13:38:01.875Z,25.03
2018-08-30T13:40:30.488Z,24.84
2018-08-30T13:42:59.449Z,24.43
2018-08-30T13:45:28.475Z,24.17
2018-08-30T13:47:57.465Z,23.96
2018-08-30T13:50:26.295Z,23.75
2018-08-30T13:52:55.049Z,23.66
2018-08-30T13:55:24.403Z,23.65
2018-08-30T13:57:53.320Z,23.83
2018-08-30T14:00:24.074Z,23.94
2018-08-30T14:02:52.716Z,24.05
2018-08-30T14:05:21.933Z,24.20
2018-08-30T14:07:50.511Z,24.17
2018-08-30T14:10:19.785Z,24.05
2018-08-30T14:12:49.036Z,23.79
2018-08-30T14:15:18.400Z,23.64
2018-08-30T14:17:46.776Z,23.41
2018-08-30T14:20:18.549Z,23.47
2018-08-30T14:22:54.872Z,23.59
2018-08-30T14:25:26.563Z,23.76
2018-08-30T14:27:55.821Z,23.79
2018-08-30T14:30:27.209Z,24.01
2018-08-30T14:32:56.431Z,23.91
2018-08-30T14:35:25.562Z,23.91
2018-08-30T14:37:57.422Z,23.89
2018-08-30T14:44:13.277Z,23.76
2018-08-30T14:46:51.081Z,23.69
2018-08-30T14:49:22.934Z,23.51
2018-08-30T14:51:52.179Z,23.47
2018-08-30T14:54:21.114Z,23.35
2018-08-30T14:56:50.178Z,23.42
2018-08-30T14:59:52.875Z,23.42
2018-08-30T15:02:21.889Z,23.36
2018-08-30T15:04:50.759Z,23.40
2018-08-30T15:07:19.593Z,23.27
2018-08-30T15:09:48.423Z,23.13
2018-08-30T15:12:17.328Z,23.01
2018-08-30T15:14:46.200Z,23.11
2018-08-30T15:17:15.043Z,23.15
2018-08-30T15:19:43.925Z,23.13
2018-08-30T15:22:12.813Z,23.10
2018-08-30T15:24:41.784Z,23.15
2018-08-30T15:27:10.972Z,23.17
2018-08-30T15:29:40.143Z,23.05
2018-08-30T15:32:08.899Z,23.02
2018-08-30T15:34:37.764Z,22.98
2018-08-30T15:37:06.581Z,22.96
2018-08-30T15:39:35.488Z,22.98
2018-08-30T15:42:04.268Z,22.87
2018-08-30T15:44:33.089Z,22.78
2018-08-30T15:47:01.949Z,22.69
2018-08-30T15:49:30.817Z,22.54
2018-08-30T15:51:59.675Z,22.44
2018-08-30T15:54:28.537Z,22.33
2018-08-30T15:56:57.565Z,22.29
2018-08-30T15:59:26.326Z,22.20
2018-08-30T16:01:55.048Z,22.05
2018-08-30T16:04:23.887Z,21.96
2018-08-30T16:06:52.840Z,21.86
2018-08-30T16:09:21.570Z,21.87
2018-08-30T16:11:50.420Z,21.91
2018-08-30T16:14:19.244Z,21.87
2018-08-30T16:16:48.080Z,21.86
2018-08-30T16:19:16.938Z,21.77
2018-08-30T16:21:45.772Z,21.81
2018-08-30T16:24:14.693Z,21.81
2018-08-30T16:26:43.453Z,21.70
2018-08-30T16:29:12.322Z,21.48
2018-08-30T16:31:41.117Z,21.41
2018-08-30T16:34:09.955Z,21.28
2018-08-30T16:36:38.797Z,21.16
2018-08-30T16:39:09.107Z,21.04
2018-08-30T16:41:37.980Z,20.93
2018-08-30T16:44:06.876Z,20.72
2018-08-30T16:46:35.708Z,20.66
2018-08-30T16:49:04.644Z,20.59
2018-08-30T16:51:33.465Z,20.65
2018-08-30T16:54:02.310Z,20.66
2018-08-30T16:56:31.138Z,20.70
2018-08-30T16:59:00.089Z,20.74
2018-08-30T17:01:28.937Z,20.74
2018-08-30T17:03:57.776Z,20.75
2018-08-30T17:06:26.783Z,20.69
2018-08-30T17:08:55.541Z,20.59
2018-08-30T17:11:24.382Z,20.52
2018-08-30T17:13:53.232Z,20.45
2018-08-30T17:16:22.068Z,20.41
2018-08-30T17:18:52.883Z,20.34
2018-08-30T17:21:21.705Z,20.23
2018-08-30T17:23:50.534Z,20.23
2018-08-30T17:26:19.368Z,20.19
2018-08-30T17:28:48.206Z,20.17
2018-08-30T17:31:17.105Z,20.14
2018-08-30T17:33:45.889Z,20.06
2018-08-30T17:36:14.727Z,20.01
2018-08-30T17:38:43.762Z,19.90
2018-08-30T17:41:12.494Z,19.90
2018-08-30T17:43:41.315Z,19.76
2018-08-30T17:46:10.186Z,19.63
2018-08-30T17:48:39.000Z,19.56
2018-08-30T17:51:07.870Z,19.46
2018-08-30T17:53:36.735Z,19.34
2018-08-30T17:56:05.915Z,19.26
2018-08-30T17:58:34.664Z,19.22
2018-08-30T18:01:03.517Z,19.08
2018-08-30T18:03:32.354Z,18.98
2018-08-30T18:06:01.183Z,18.87
2018-08-30T18:08:30.008Z,18.79
2018-08-30T18:10:58.864Z,18.90
2018-08-30T18:13:27.712Z,18.71
2018-08-30T18:15:56.543Z,18.82
2018-08-30T18:18:25.415Z,18.58
2018-08-30T18:20:54.230Z,18.71
2018-08-30T18:23:23.066Z,18.42
2018-08-30T18:25:51.930Z,18.38
2018-08-30T18:28:20.777Z,18.29
2018-08-30T18:30:49.636Z,18.24
2018-08-30T18:33:18.462Z,18.12
2018-08-30T18:35:47.312Z,17.93
2018-08-30T18:38:16.130Z,17.83
2018-08-30T18:40:44.956Z,17.70
2018-08-30T18:43:13.824Z,17.62
2018-08-30T18:45:42.672Z,17.56
2018-08-30T18:48:11.511Z,17.57
2018-08-30T18:50:40.400Z,17.52
2018-08-30T18:53:09.262Z,17.39
2018-08-30T18:55:38.081Z,17.22
2018-08-30T18:58:06.921Z,17.16
2018-08-30T19:00:35.756Z,17.04
2018-08-30T19:03:04.601Z,16.93
2018-08-30T19:05:33.435Z,17.14
2018-08-30T19:08:02.276Z,16.84
2018-08-30T19:10:31.101Z,16.79
2018-08-30T19:12:59.945Z,16.68
2018-08-30T19:15:46.596Z,16.64
2018-08-30T19:18:33.193Z,16.58
2018-08-30T19:21:02.048Z,16.54
2018-08-30T19:23:30.869Z,16.54
2018-08-30T19:25:59.703Z,16.48
2018-08-30T19:28:28.555Z,16.49
2018-08-30T19:30:57.374Z,16.42
2018-08-30T19:33:26.238Z,16.66
2018-08-30T19:36:13.197Z,16.41
2018-08-30T19:38:42.108Z,16.25
2018-08-30T19:41:21.123Z,16.18
2018-08-30T19:43:51.039Z,16.09
2018-08-30T19:46:20.443Z,16.02
2018-08-30T19:48:49.290Z,15.96
2018-08-30T19:51:18.146Z,15.92
2018-08-30T19:53:46.997Z,15.85
2018-08-30T19:56:16.083Z,15.83
2018-08-30T19:58:44.935Z,15.81
2018-08-30T20:01:13.798Z,15.84
2018-08-30T20:03:42.631Z,15.81
2018-08-30T20:06:11.505Z,15.73
2018-08-30T20:08:40.382Z,15.70
2018-08-30T20:11:09.291Z,15.70
2018-08-30T20:13:38.136Z,15.68
2018-08-30T20:16:06.980Z,15.66
2018-08-30T20:18:35.809Z,15.63
2018-08-30T20:21:04.649Z,15.59
2018-08-30T20:23:33.859Z,15.55
2018-08-30T20:26:03.556Z,15.48
2018-08-30T20:28:32.939Z,15.75
2018-08-30T20:31:01.769Z,15.42
2018-08-30T20:33:30.635Z,15.36
2018-08-30T20:35:59.523Z,15.35
2018-08-30T20:38:28.390Z,15.34
2018-08-30T20:40:57.279Z,15.27
2018-08-30T20:43:26.069Z,15.56
2018-08-30T20:45:54.909Z,15.32
2018-08-30T20:48:23.763Z,15.58
2018-08-30T20:50:52.609Z,15.23
2018-08-30T20:53:21.471Z,15.48
2018-08-30T20:55:50.334Z,15.03
2018-08-30T20:58:19.250Z,14.93
2018-08-30T21:00:48.116Z,14.88
2018-08-30T21:03:16.959Z,14.78
2018-08-30T21:05:45.830Z,14.76
2018-08-30T21:08:14.661Z,14.69
2018-08-30T21:10:43.496Z,14.60
2018-08-30T21:13:12.357Z,14.51
2018-08-30T21:15:41.191Z,14.43
2018-08-30T21:18:10.021Z,14.37
2018-08-30T21:20:38.853Z,14.34
2018-08-30T21:23:07.712Z,14.32
2018-08-30T21:25:36.539Z,14.29
2018-08-30T21:28:05.731Z,14.60
2018-08-30T21:30:34.604Z,14.35
2018-08-30T21:33:03.479Z,14.24
2018-08-30T21:35:32.341Z,14.22
2018-08-30T21:38:01.175Z,14.12
2018-08-30T21:40:30.061Z,14.15
2018-08-30T21:42:58.891Z,14.12
2018-08-30T21:45:27.749Z,14.13
2018-08-30T21:47:56.599Z,14.08
2018-08-30T21:50:25.517Z,13.97
2018-08-30T21:52:54.324Z,14.24
2018-08-30T21:55:23.173Z,14.01
2018-08-30T21:57:52.005Z,13.91
2018-08-30T22:00:20.845Z,13.86
2018-08-30T22:02:49.818Z,13.84
2018-08-30T22:05:18.538Z,14.10
2018-08-30T22:07:47.382Z,13.88
2018-08-30T22:10:16.219Z,13.79
2018-08-30T22:12:45.074Z,13.73
2018-08-30T22:15:13.908Z,13.94
2018-08-30T22:17:42.752Z,13.66
2018-08-30T22:20:11.572Z,13.57
2018-08-30T22:22:40.420Z,13.53
2018-08-30T22:25:09.265Z,13.50
2018-08-30T22:27:38.170Z,13.56
2018-08-30T22:30:08.689Z,13.44
2018-08-30T22:32:37.566Z,13.43
2018-08-30T22:35:06.846Z,13.34
2018-08-30T22:37:36.100Z,13.35
2018-08-30T22:40:05.362Z,13.33
2018-08-30T22:42:34.145Z,13.26
2018-08-30T22:45:03.617Z,13.24
2018-08-30T22:47:32.669Z,13.21
2018-08-30T22:50:01.535Z,13.19
2018-08-30T22:52:30.455Z,13.10
2018-08-30T22:54:59.292Z,13.11
2018-08-30T22:57:28.213Z,13.03
2018-08-30T22:59:57.026Z,12.98
2018-08-30T23:02:25.866Z,12.98
2018-08-30T23:04:55.614Z,12.99
2018-08-30T23:07:24.475Z,13.24
2018-08-30T23:09:53.338Z,13.00
2018-08-30T23:12:22.202Z,12.97
2018-08-30T23:14:51.057Z,12.88
2018-08-30T23:17:19.893Z,12.77
2018-08-30T23:19:48.784Z,12.72
2018-08-30T23:22:17.614Z,12.67
2018-08-30T23:24:46.515Z,12.66
2018-08-30T23:27:15.375Z,12.68
2018-08-30T23:29:44.202Z,12.60
2018-08-30T23:32:13.038Z,12.53
2018-08-30T23:34:41.887Z,12.52
2018-08-30T23:37:10.733Z,12.48
2018-08-30T23:39:39.575Z,12.44
2018-08-30T23:42:08.428Z,12.41
2018-08-30T23:44:37.315Z,12.38
2018-08-30T23:47:06.230Z,12.36
2018-08-30T23:49:35.069Z,12.66
2018-08-30T23:52:03.909Z,12.38
2018-08-30T23:54:32.837Z,12.29
2018-08-30T23:57:01.680Z,12.25
